sensor_id;sensor_type;location;lat;lon;timestamp;P1;durP1;ratioP1;P2;durP2;ratioP2
19617;SDS011;9956;51.006;13.670;2022-09-27T00:03:05;1.23;;;0.70;;
19617;SDS011;9956;51.006;13.670;2022-09-27T00:08:06;2.05;;;1.20;;
19617;SDS011;9956;51.006;13.670;2022-09-27T00:13:06;1.08;;;0.93;;
19617;SDS011;9956;51.006;13.670;2022-09-27T00:18:07;1.73;;;0.85;;
19617;SDS011;9956;51.006;13.670;2022-09-27T00:23:09;1.88;;;0.85;;
19617;SDS011;9956;51.006;13.670;2022-09-27T00:28:09;2.05;;;0.88;;
19617;SDS011;9956;51.006;13.670;2022-09-27T00:33:09;1.27;;;0.60;;
19617;SDS011;9956;51.006;13.670;2022-09-27T00:38:10;2.00;;;0.70;;
19617;SDS011;9956;51.006;13.670;2022-09-27T00:43:16;1.30;;;0.80;;
19617;SDS011;9956;51.006;13.670;2022-09-27T00:48:23;1.73;;;0.90;;
19617;SDS011;9956;51.006;13.670;2022-09-27T00:53:30;1.48;;;1.08;;
19617;SDS011;9956;51.006;13.670;2022-09-27T00:58:38;1.13;;;0.90;;
19617;SDS011;9956;51.006;13.670;2022-09-27T01:03:50;1.83;;;0.90;;
19617;SDS011;9956;51.006;13.670;2022-09-27T01:08:58;1.13;;;1.00;;
19617;SDS011;9956;51.006;13.670;2022-09-27T01:24:30;2.67;;;1.10;;
19617;SDS011;9956;51.006;13.670;2022-09-27T01:46:14;3.35;;;1.30;;
19617;SDS011;9956;51.006;13.670;2022-09-27T01:51:43;1.35;;;1.25;;
19617;SDS011;9956;51.006;13.670;2022-09-27T01:56:47;2.70;;;1.20;;
19617;SDS011;9956;51.006;13.670;2022-09-27T02:01:59;4.72;;;1.40;;
19617;SDS011;9956;51.006;13.670;2022-09-27T02:07:19;2.72;;;1.60;;
19617;SDS011;9956;51.006;13.670;2022-09-27T02:12:43;3.88;;;1.80;;
19617;SDS011;9956;51.006;13.670;2022-09-27T02:17:56;2.28;;;2.08;;
19617;SDS011;9956;51.006;13.670;2022-09-27T02:23:09;2.67;;;2.28;;
19617;SDS011;9956;51.006;13.670;2022-09-27T02:28:32;4.15;;;2.80;;
19617;SDS011;9956;51.006;13.670;2022-09-27T02:33:37;3.08;;;2.55;;
19617;SDS011;9956;51.006;13.670;2022-09-27T02:38:43;3.55;;;2.92;;
19617;SDS011;9956;51.006;13.670;2022-09-27T02:43:47;3.75;;;3.20;;
19617;SDS011;9956;51.006;13.670;2022-09-27T03:00:19;3.72;;;3.30;;
19617;SDS011;9956;51.006;13.670;2022-09-27T03:06:00;4.95;;;3.85;;
19617;SDS011;9956;51.006;13.670;2022-09-27T03:11:03;4.93;;;4.40;;
19617;SDS011;9956;51.006;13.670;2022-09-27T03:16:04;6.15;;;4.85;;
19617;SDS011;9956;51.006;13.670;2022-09-27T03:21:28;5.85;;;5.35;;
19617;SDS011;9956;51.006;13.670;2022-09-27T03:26:29;7.13;;;6.53;;
19617;SDS011;9956;51.006;13.670;2022-09-27T03:31:30;6.20;;;5.60;;
19617;SDS011;9956;51.006;13.670;2022-09-27T03:37:09;6.82;;;6.22;;
19617;SDS011;9956;51.006;13.670;2022-09-27T03:42:10;7.15;;;6.50;;
19617;SDS011;9956;51.006;13.670;2022-09-27T03:47:14;9.20;;;7.90;;
19617;SDS011;9956;51.006;13.670;2022-09-27T03:52:15;9.85;;;8.43;;
19617;SDS011;9956;51.006;13.670;2022-09-27T03:57:18;10.55;;;9.55;;
19617;SDS011;9956;51.006;13.670;2022-09-27T04:02:18;10.95;;;9.95;;
19617;SDS011;9956;51.006;13.670;2022-09-27T04:07:46;10.68;;;9.70;;
19617;SDS011;9956;51.006;13.670;2022-09-27T04:12:49;10.93;;;9.93;;
19617;SDS011;9956;51.006;13.670;2022-09-27T04:17:51;13.15;;;11.95;;
19617;SDS011;9956;51.006;13.670;2022-09-27T04:23:12;13.10;;;11.90;;
19617;SDS011;9956;51.006;13.670;2022-09-27T04:28:17;14.73;;;13.32;;
19617;SDS011;9956;51.006;13.670;2022-09-27T04:33:18;14.95;;;13.45;;
19617;SDS011;9956;51.006;13.670;2022-09-27T04:38:36;14.57;;;13.18;;
19617;SDS011;9956;51.006;13.670;2022-09-27T04:43:40;16.42;;;13.40;;
19617;SDS011;9956;51.006;13.670;2022-09-27T04:48:40;15.30;;;13.70;;
19617;SDS011;9956;51.006;13.670;2022-09-27T04:53:41;16.48;;;14.80;;
19617;SDS011;9956;51.006;13.670;2022-09-27T04:58:42;14.73;;;13.25;;
19617;SDS011;9956;51.006;13.670;2022-09-27T05:03:42;14.95;;;12.75;;
19617;SDS011;9956;51.006;13.670;2022-09-27T05:08:45;12.48;;;11.27;;
19617;SDS011;9956;51.006;13.670;2022-09-27T05:13:51;9.48;;;8.57;;
19617;SDS011;9956;51.006;13.670;2022-09-27T05:18:52;10.10;;;9.30;;
19617;SDS011;9956;51.006;13.670;2022-09-27T05:24:18;11.88;;;10.73;;
19617;SDS011;9956;51.006;13.670;2022-09-27T05:29:20;12.10;;;10.90;;
19617;SDS011;9956;51.006;13.670;2022-09-27T05:34:36;10.20;;;9.25;;
19617;SDS011;9956;51.006;13.670;2022-09-27T05:39:37;10.38;;;9.32;;
19617;SDS011;9956;51.006;13.670;2022-09-27T05:44:38;10.45;;;9.55;;
19617;SDS011;9956;51.006;13.670;2022-09-27T05:49:39;10.27;;;9.27;;
19617;SDS011;9956;51.006;13.670;2022-09-27T05:54:42;7.55;;;6.78;;
19617;SDS011;9956;51.006;13.670;2022-09-27T05:59:42;7.25;;;6.63;;
19617;SDS011;9956;51.006;13.670;2022-09-27T06:04:55;6.55;;;6.05;;
19617;SDS011;9956;51.006;13.670;2022-09-27T06:10:14;5.53;;;5.03;;
19617;SDS011;9956;51.006;13.670;2022-09-27T06:15:16;4.00;;;3.70;;
19617;SDS011;9956;51.006;13.670;2022-09-27T06:20:18;4.32;;;3.97;;
19617;SDS011;9956;51.006;13.670;2022-09-27T06:25:20;4.38;;;3.80;;
19617;SDS011;9956;51.006;13.670;2022-09-27T06:30:48;4.60;;;4.20;;
19617;SDS011;9956;51.006;13.670;2022-09-27T06:36:25;4.07;;;3.67;;
19617;SDS011;9956;51.006;13.670;2022-09-27T06:41:25;4.40;;;3.63;;
19617;SDS011;9956;51.006;13.670;2022-09-27T06:46:42;3.08;;;2.78;;
19617;SDS011;9956;51.006;13.670;2022-09-27T06:51:57;2.90;;;2.70;;
19617;SDS011;9956;51.006;13.670;2022-09-27T06:56:59;2.92;;;1.80;;
19617;SDS011;9956;51.006;13.670;2022-09-27T07:01:59;2.10;;;1.90;;
19617;SDS011;9956;51.006;13.670;2022-09-27T07:07:01;2.00;;;1.80;;
19617;SDS011;9956;51.006;13.670;2022-09-27T07:12:08;2.20;;;2.00;;
19617;SDS011;9956;51.006;13.670;2022-09-27T07:17:08;2.88;;;2.15;;
19617;SDS011;9956;51.006;13.670;2022-09-27T07:22:12;2.00;;;1.40;;
19617;SDS011;9956;51.006;13.670;2022-09-27T07:27:16;1.70;;;1.20;;
19617;SDS011;9956;51.006;13.670;2022-09-27T07:32:18;1.17;;;1.08;;
19617;SDS011;9956;51.006;13.670;2022-09-27T07:37:21;1.10;;;1.00;;
19617;SDS011;9956;51.006;13.670;2022-09-27T07:42:22;1.38;;;1.20;;
19617;SDS011;9956;51.006;13.670;2022-09-27T07:47:26;1.88;;;0.90;;
19617;SDS011;9956;51.006;13.670;2022-09-27T07:52:40;2.55;;;0.95;;
19617;SDS011;9956;51.006;13.670;2022-09-27T07:58:09;0.70;;;0.65;;
19617;SDS011;9956;51.006;13.670;2022-09-27T08:03:12;0.80;;;0.77;;
19617;SDS011;9956;51.006;13.670;2022-09-27T08:08:17;0.63;;;0.55;;
19617;SDS011;9956;51.006;13.670;2022-09-27T08:13:19;0.70;;;0.50;;
19617;SDS011;9956;51.006;13.670;2022-09-27T08:18:20;2.30;;;0.38;;
19617;SDS011;9956;51.006;13.670;2022-09-27T08:23:23;0.90;;;0.43;;
19617;SDS011;9956;51.006;13.670;2022-09-27T08:28:36;1.05;;;0.30;;
19617;SDS011;9956;51.006;13.670;2022-09-27T08:33:49;0.80;;;0.40;;
19617;SDS011;9956;51.006;13.670;2022-09-27T08:38:50;0.57;;;0.20;;
19617;SDS011;9956;51.006;13.670;2022-09-27T08:44:03;0.45;;;0.20;;
19617;SDS011;9956;51.006;13.670;2022-09-27T08:54:31;0.30;;;0.20;;
19617;SDS011;9956;51.006;13.670;2022-09-27T08:59:36;0.47;;;0.20;;
19617;SDS011;9956;51.006;13.670;2022-09-27T09:04:40;0.32;;;0.30;;
19617;SDS011;9956;51.006;13.670;2022-09-27T09:09:46;0.30;;;0.20;;
19617;SDS011;9956;51.006;13.670;2022-09-27T09:47:56;0.25;;;0.20;;
19617;SDS011;9956;51.006;13.670;2022-09-27T09:58:55;0.30;;;0.20;;
19617;SDS011;9956;51.006;13.670;2022-09-27T10:04:07;1.10;;;0.45;;
19617;SDS011;9956;51.006;13.670;2022-09-27T10:09:32;0.70;;;0.45;;
19617;SDS011;9956;51.006;13.670;2022-09-27T10:15:06;2.40;;;0.50;;
19617;SDS011;9956;51.006;13.670;2022-09-27T10:20:07;0.55;;;0.20;;
19617;SDS011;9956;51.006;13.670;2022-09-27T10:25:18;0.20;;;0.20;;
19617;SDS011;9956;51.006;13.670;2022-09-27T10:30:32;0.20;;;0.10;;
19617;SDS011;9956;51.006;13.670;2022-09-27T10:35:43;0.30;;;0.10;;
19617;SDS011;9956;51.006;13.670;2022-09-27T10:41:23;2.92;;;0.20;;
19617;SDS011;9956;51.006;13.670;2022-09-27T10:46:50;0.98;;;0.20;;
19617;SDS011;9956;51.006;13.670;2022-09-27T10:52:19;0.30;;;0.20;;
19617;SDS011;9956;51.006;13.670;2022-09-27T10:57:22;4.38;;;0.25;;
19617;SDS011;9956;51.006;13.670;2022-09-27T11:02:31;1.50;;;0.30;;
19617;SDS011;9956;51.006;13.670;2022-09-27T11:07:50;0.70;;;0.30;;
19617;SDS011;9956;51.006;13.670;2022-09-27T11:13:34;0.32;;;0.10;;
19617;SDS011;9956;51.006;13.670;2022-09-27T11:18:48;0.55;;;0.30;;
19617;SDS011;9956;51.006;13.670;2022-09-27T11:45:53;0.43;;;0.20;;
19617;SDS011;9956;51.006;13.670;2022-09-27T12:02:03;1.23;;;0.22;;
19617;SDS011;9956;51.006;13.670;2022-09-27T12:12:34;0.38;;;0.20;;
19617;SDS011;9956;51.006;13.670;2022-09-27T12:17:37;0.40;;;0.20;;
19617;SDS011;9956;51.006;13.670;2022-09-27T12:22:49;5.72;;;1.70;;
19617;SDS011;9956;51.006;13.670;2022-09-27T12:38:49;2.25;;;0.30;;
19617;SDS011;9956;51.006;13.670;2022-09-27T12:43:55;0.40;;;0.20;;
19617;SDS011;9956;51.006;13.670;2022-09-27T13:11:07;0.30;;;0.20;;
19617;SDS011;9956;51.006;13.670;2022-09-27T13:16:11;0.68;;;0.20;;
19617;SDS011;9956;51.006;13.670;2022-09-27T13:32:22;0.55;;;0.20;;
19617;SDS011;9956;51.006;13.670;2022-09-27T13:43:06;1.05;;;0.60;;
19617;SDS011;9956;51.006;13.670;2022-09-27T13:48:16;5.07;;;0.60;;
19617;SDS011;9956;51.006;13.670;2022-09-27T13:58:58;0.70;;;0.40;;
19617;SDS011;9956;51.006;13.670;2022-09-27T14:04:24;0.30;;;0.30;;
19617;SDS011;9956;51.006;13.670;2022-09-27T14:09:28;0.60;;;0.40;;
19617;SDS011;9956;51.006;13.670;2022-09-27T14:14:49;0.60;;;0.50;;
19617;SDS011;9956;51.006;13.670;2022-09-27T14:19:50;1.67;;;0.60;;
19617;SDS011;9956;51.006;13.670;2022-09-27T14:24:55;0.40;;;0.38;;
19617;SDS011;9956;51.006;13.670;2022-09-27T14:30:19;2.60;;;0.80;;
19617;SDS011;9956;51.006;13.670;2022-09-27T14:35:30;1.88;;;1.42;;
19617;SDS011;9956;51.006;13.670;2022-09-27T14:45:57;3.55;;;3.10;;
19617;SDS011;9956;51.006;13.670;2022-09-27T14:56:13;1.17;;;0.85;;
19617;SDS011;9956;51.006;13.670;2022-09-27T15:01:18;1.20;;;0.80;;
19617;SDS011;9956;51.006;13.670;2022-09-27T15:06:19;0.43;;;0.43;;
19617;SDS011;9956;51.006;13.670;2022-09-27T15:11:19;1.02;;;0.68;;
19617;SDS011;9956;51.006;13.670;2022-09-27T15:16:21;1.27;;;0.70;;
19617;SDS011;9956;51.006;13.670;2022-09-27T15:21:32;1.15;;;1.05;;
19617;SDS011;9956;51.006;13.670;2022-09-27T15:26:35;0.60;;;0.50;;
19617;SDS011;9956;51.006;13.670;2022-09-27T15:31:37;0.73;;;0.70;;
19617;SDS011;9956;51.006;13.670;2022-09-27T15:36:51;2.35;;;1.40;;
19617;SDS011;9956;51.006;13.670;2022-09-27T15:52:40;2.58;;;1.40;;
19617;SDS011;9956;51.006;13.670;2022-09-27T15:57:42;1.80;;;1.25;;
19617;SDS011;9956;51.006;13.670;2022-09-27T16:02:45;6.38;;;4.03;;
19617;SDS011;9956;51.006;13.670;2022-09-27T16:07:45;1.65;;;1.35;;
19617;SDS011;9956;51.006;13.670;2022-09-27T16:12:46;2.17;;;1.70;;
19617;SDS011;9956;51.006;13.670;2022-09-27T16:17:46;2.08;;;1.50;;
19617;SDS011;9956;51.006;13.670;2022-09-27T16:22:47;1.95;;;0.70;;
19617;SDS011;9956;51.006;13.670;2022-09-27T16:27:48;2.20;;;1.15;;
19617;SDS011;9956;51.006;13.670;2022-09-27T16:32:48;2.67;;;2.28;;
19617;SDS011;9956;51.006;13.670;2022-09-27T16:37:49;3.80;;;2.25;;
19617;SDS011;9956;51.006;13.670;2022-09-27T16:42:49;2.15;;;1.73;;
19617;SDS011;9956;51.006;13.670;2022-09-27T16:47:50;1.73;;;1.42;;
19617;SDS011;9956;51.006;13.670;2022-09-27T16:52:50;2.78;;;1.60;;
19617;SDS011;9956;51.006;13.670;2022-09-27T16:57:51;3.08;;;2.30;;
19617;SDS011;9956;51.006;13.670;2022-09-27T17:02:51;2.97;;;2.67;;
19617;SDS011;9956;51.006;13.670;2022-09-27T17:07:52;6.43;;;2.80;;
19617;SDS011;9956;51.006;13.670;2022-09-27T17:12:53;4.03;;;2.08;;
19617;SDS011;9956;51.006;13.670;2022-09-27T17:17:55;2.30;;;1.52;;
19617;SDS011;9956;51.006;13.670;2022-09-27T17:22:56;2.20;;;2.00;;
19617;SDS011;9956;51.006;13.670;2022-09-27T17:27:59;4.65;;;3.33;;
19617;SDS011;9956;51.006;13.670;2022-09-27T17:33:00;5.47;;;2.90;;
19617;SDS011;9956;51.006;13.670;2022-09-27T17:38:00;4.13;;;2.90;;
19617;SDS011;9956;51.006;13.670;2022-09-27T17:43:01;12.80;;;8.23;;
19617;SDS011;9956;51.006;13.670;2022-09-27T17:48:03;6.30;;;4.97;;
19617;SDS011;9956;51.006;13.670;2022-09-27T17:53:22;4.03;;;2.67;;
19617;SDS011;9956;51.006;13.670;2022-09-27T17:58:22;3.67;;;3.35;;
19617;SDS011;9956;51.006;13.670;2022-09-27T18:03:22;3.45;;;2.60;;
19617;SDS011;9956;51.006;13.670;2022-09-27T18:08:24;4.28;;;2.10;;
19617;SDS011;9956;51.006;13.670;2022-09-27T18:13:28;3.85;;;1.80;;
19617;SDS011;9956;51.006;13.670;2022-09-27T18:18:37;2.85;;;2.03;;
19617;SDS011;9956;51.006;13.670;2022-09-27T18:23:38;2.85;;;2.20;;
19617;SDS011;9956;51.006;13.670;2022-09-27T18:28:40;4.90;;;1.80;;
19617;SDS011;9956;51.006;13.670;2022-09-27T18:33:41;1.95;;;1.55;;
19617;SDS011;9956;51.006;13.670;2022-09-27T18:38:41;1.83;;;1.73;;
19617;SDS011;9956;51.006;13.670;2022-09-27T18:43:43;11.15;;;4.55;;
19617;SDS011;9956;51.006;13.670;2022-09-27T18:48:44;39.70;;;14.88;;
19617;SDS011;9956;51.006;13.670;2022-09-27T18:53:45;1.45;;;1.08;;
19617;SDS011;9956;51.006;13.670;2022-09-27T18:58:53;1.63;;;1.10;;
19617;SDS011;9956;51.006;13.670;2022-09-27T19:03:54;1.40;;;1.20;;
19617;SDS011;9956;51.006;13.670;2022-09-27T19:08:54;2.97;;;1.58;;
19617;SDS011;9956;51.006;13.670;2022-09-27T19:13:57;1.65;;;1.40;;
19617;SDS011;9956;51.006;13.670;2022-09-27T19:18:58;2.40;;;1.52;;
19617;SDS011;9956;51.006;13.670;2022-09-27T19:23:58;3.15;;;1.67;;
19617;SDS011;9956;51.006;13.670;2022-09-27T19:29:00;1.60;;;1.50;;
19617;SDS011;9956;51.006;13.670;2022-09-27T19:34:00;1.67;;;1.58;;
19617;SDS011;9956;51.006;13.670;2022-09-27T19:39:01;1.83;;;1.35;;
19617;SDS011;9956;51.006;13.670;2022-09-27T19:44:01;1.70;;;1.60;;
19617;SDS011;9956;51.006;13.670;2022-09-27T19:49:02;2.10;;;1.90;;
19617;SDS011;9956;51.006;13.670;2022-09-27T19:54:02;1.33;;;1.15;;
19617;SDS011;9956;51.006;13.670;2022-09-27T19:59:03;1.75;;;1.60;;
19617;SDS011;9956;51.006;13.670;2022-09-27T20:04:03;1.55;;;1.10;;
19617;SDS011;9956;51.006;13.670;2022-09-27T20:09:04;1.25;;;1.15;;
19617;SDS011;9956;51.006;13.670;2022-09-27T20:14:07;1.63;;;1.42;;
19617;SDS011;9956;51.006;13.670;2022-09-27T20:19:08;2.10;;;1.30;;
19617;SDS011;9956;51.006;13.670;2022-09-27T20:24:09;1.58;;;1.23;;
19617;SDS011;9956;51.006;13.670;2022-09-27T20:29:09;2.13;;;1.65;;
19617;SDS011;9956;51.006;13.670;2022-09-27T20:34:11;1.05;;;1.00;;
19617;SDS011;9956;51.006;13.670;2022-09-27T20:39:13;1.10;;;1.00;;
19617;SDS011;9956;51.006;13.670;2022-09-27T20:44:15;1.77;;;1.15;;
19617;SDS011;9956;51.006;13.670;2022-09-27T20:49:17;0.85;;;0.77;;
19617;SDS011;9956;51.006;13.670;2022-09-27T20:54:18;2.30;;;0.95;;
19617;SDS011;9956;51.006;13.670;2022-09-27T20:59:19;1.73;;;0.90;;
19617;SDS011;9956;51.006;13.670;2022-09-27T21:04:20;1.45;;;1.10;;
19617;SDS011;9956;51.006;13.670;2022-09-27T21:09:22;1.30;;;1.08;;
19617;SDS011;9956;51.006;13.670;2022-09-27T21:14:22;1.27;;;1.10;;
19617;SDS011;9956;51.006;13.670;2022-09-27T21:19:23;1.05;;;0.95;;
19617;SDS011;9956;51.006;13.670;2022-09-27T21:24:23;1.70;;;0.85;;
19617;SDS011;9956;51.006;13.670;2022-09-27T21:29:24;3.47;;;1.17;;
19617;SDS011;9956;51.006;13.670;2022-09-27T21:34:27;2.35;;;1.10;;
19617;SDS011;9956;51.006;13.670;2022-09-27T21:39:27;1.58;;;1.23;;
19617;SDS011;9956;51.006;13.670;2022-09-27T21:44:28;1.63;;;0.95;;
19617;SDS011;9956;51.006;13.670;2022-09-27T21:49:29;1.30;;;0.95;;
19617;SDS011;9956;51.006;13.670;2022-09-27T21:54:29;2.25;;;1.27;;
19617;SDS011;9956;51.006;13.670;2022-09-27T21:59:30;3.03;;;1.38;;
19617;SDS011;9956;51.006;13.670;2022-09-27T22:04:31;1.42;;;1.00;;
19617;SDS011;9956;51.006;13.670;2022-09-27T22:09:31;1.90;;;1.35;;
19617;SDS011;9956;51.006;13.670;2022-09-27T22:14:32;1.77;;;1.10;;
19617;SDS011;9956;51.006;13.670;2022-09-27T22:19:33;1.73;;;1.00;;
19617;SDS011;9956;51.006;13.670;2022-09-27T22:24:33;1.20;;;1.10;;
19617;SDS011;9956;51.006;13.670;2022-09-27T22:29:34;1.55;;;1.10;;
19617;SDS011;9956;51.006;13.670;2022-09-27T22:34:35;1.45;;;0.88;;
19617;SDS011;9956;51.006;13.670;2022-09-27T22:39:35;2.17;;;0.80;;
19617;SDS011;9956;51.006;13.670;2022-09-27T22:44:35;1.30;;;0.90;;
19617;SDS011;9956;51.006;13.670;2022-09-27T22:49:38;1.05;;;0.70;;
19617;SDS011;9956;51.006;13.670;2022-09-27T22:54:38;2.42;;;1.00;;
19617;SDS011;9956;51.006;13.670;2022-09-27T22:59:39;1.08;;;0.88;;
19617;SDS011;9956;51.006;13.670;2022-09-27T23:04:39;1.10;;;0.80;;
19617;SDS011;9956;51.006;13.670;2022-09-27T23:09:40;1.58;;;0.70;;
19617;SDS011;9956;51.006;13.670;2022-09-27T23:14:41;0.90;;;0.70;;
19617;SDS011;9956;51.006;13.670;2022-09-27T23:19:41;2.53;;;0.80;;
19617;SDS011;9956;51.006;13.670;2022-09-27T23:24:42;1.27;;;0.80;;
19617;SDS011;9956;51.006;13.670;2022-09-27T23:29:42;3.45;;;0.80;;
19617;SDS011;9956;51.006;13.670;2022-09-27T23:34:43;2.20;;;0.77;;
19617;SDS011;9956;51.006;13.670;2022-09-27T23:39:43;1.00;;;0.85;;
19617;SDS011;9956;51.006;13.670;2022-09-27T23:44:44;1.65;;;0.75;;
19617;SDS011;9956;51.006;13.670;2022-09-27T23:49:44;0.98;;;0.50;;
19617;SDS011;9956;51.006;13.670;2022-09-27T23:54:44;0.85;;;0.73;;
19617;SDS011;9956;51.006;13.670;2022-09-27T23:59:45;1.63;;;0.70;;
